Time;durP1;ratioP1;P1;durP2;ratioP2;P2;SDS_P1;SDS_P2;PMS_P1;PMS_P2;Temp;Humidity;BMP_temperature;BMP_pressure;BME280_temperature;BME280_humidity;BME280_pressure;Samples;Min_cycle;Max_cycle;Signal;HPM_P1;HPM_P2
2023/04/16 00:01:48;;;;;;;3.20;2.33;;;;;;;5.73;75.25;98804.22;5066974;28;20051;-72
2023/04/16 00:04:15;;;;;;;2.90;2.30;;;;;;;5.54;75.16;98774.41;5066592;28;20037;-71
2023/04/16 00:06:43;;;;;;;2.70;2.03;;;;;;;5.72;75.15;98803.38;5066892;28;20045;-70
2023/04/16 00:09:10;;;;;;;2.83;2.30;;;;;;;5.70;75.25;98802.59;5066485;28;20048;-71
2023/04/16 00:11:36;;;;;;;3.17;2.42;;;;;;;5.71;75.33;98806.91;5066523;28;20053;-71
2023/04/16 00:14:03;;;;;;;2.95;2.22;;;;;;;5.72;75.30;98789.38;5066246;28;20301;-72
2023/04/16 00:16:30;;;;;;;2.80;1.92;;;;;;;5.75;75.25;98797.13;5066743;28;20041;-70
2023/04/16 00:18:57;;;;;;;2.80;2.10;;;;;;;5.74;75.25;98798.03;5066479;28;20251;-70
2023/04/16 00:21:23;;;;;;;3.58;2.17;;;;;;;5.73;75.25;98794.56;5066130;28;20052;-71
2023/04/16 00:23:51;;;;;;;2.70;2.20;;;;;;;5.75;75.26;98791.88;5066345;28;20067;-72
2023/04/16 00:26:18;;;;;;;3.20;2.10;;;;;;;5.75;75.19;98786.59;5066571;28;20037;-72
2023/04/16 00:28:45;;;;;;;2.88;2.15;;;;;;;5.51;75.07;98749.09;5066496;28;20048;-71
2023/04/16 00:31:11;;;;;;;2.70;2.28;;;;;;;5.73;75.08;98799.81;5066250;28;20251;-72
2023/04/16 00:33:38;;;;;;;2.70;2.03;;;;;;;5.74;75.11;98798.03;5066417;28;20044;-72
2023/04/16 00:36:05;;;;;;;2.70;1.98;;;;;;;5.74;75.03;98805.94;5066066;28;20053;-71
2023/04/16 00:38:32;;;;;;;2.95;2.20;;;;;;;5.56;74.99;98778.69;5065745;28;20044;-71
2023/04/16 00:41:00;;;;;;;4.15;2.55;;;;;;;5.73;75.15;98806.84;5066860;28;20050;-71
2023/04/16 00:43:27;;;;;;;2.90;2.30;;;;;;;5.63;75.14;98788.00;5065933;28;20118;-71
2023/04/16 00:45:56;;;;;;;2.97;2.20;;;;;;;5.71;75.09;98804.28;5066347;28;20193;-71
2023/04/16 00:48:23;;;;;;;2.53;2.00;;;;;;;5.69;75.18;98797.38;5066405;28;20100;-71
2023/04/16 00:50:50;;;;;;;3.00;2.50;;;;;;;5.71;75.13;98801.66;5065816;28;20053;-71
2023/04/16 00:53:17;;;;;;;3.10;2.50;;;;;;;4.58;75.05;98627.06;5066101;28;20041;-72
2023/04/16 00:55:43;;;;;;;2.88;2.30;;;;;;;5.66;75.27;98806.25;5066087;28;20091;-72
2023/04/16 00:58:11;;;;;;;3.17;2.50;;;;;;;5.63;75.33;98802.91;5065451;28;20273;-71
2023/04/16 01:00:38;;;;;;;3.00;2.33;;;;;;;5.37;75.38;98773.38;5065807;28;20043;-70
2023/04/16 01:03:05;;;;;;;2.88;2.10;;;;;;;5.57;75.45;98813.69;5065450;28;20040;-70
2023/04/16 01:05:32;;;;;;;2.72;2.10;;;;;;;2.27;75.31;98259.34;5066097;28;20045;-70
2023/04/16 01:07:59;;;;;;;3.45;2.47;;;;;;;5.51;75.55;98808.72;5065515;28;20047;-71
2023/04/16 01:10:26;;;;;;;2.70;2.20;;;;;;;5.49;75.71;98815.81;5065354;28;20049;-71
2023/04/16 01:12:52;;;;;;;4.07;2.72;;;;;;;5.48;75.87;98803.59;5066389;28;20047;-71
2023/04/16 01:15:20;;;;;;;3.03;2.40;;;;;;;5.45;75.80;98810.69;5065689;28;20041;-71
2023/04/16 01:17:47;;;;;;;3.33;2.70;;;;;;;5.45;75.91;98818.56;5065012;28;20049;-71
2023/04/16 01:20:14;;;;;;;3.35;2.60;;;;;;;5.26;76.00;98783.47;5065436;28;20048;-70
2023/04/16 01:22:42;;;;;;;3.78;2.80;;;;;;;5.42;76.00;98817.84;5065544;28;20041;-71
2023/04/16 01:25:14;;;;;;;3.00;2.40;;;;;;;5.41;76.03;98817.00;5065398;28;20079;-70
2023/04/16 01:27:40;;;;;;;3.58;2.85;;;;;;;5.42;76.13;98828.34;5065638;28;20045;-70
2023/04/16 01:30:08;;;;;;;4.25;2.80;;;;;;;5.28;76.02;98800.03;5065164;28;20033;-71
2023/04/16 01:32:35;;;;;;;4.80;3.20;;;;;;;5.40;76.26;98820.53;5065123;28;20108;-70
2023/04/16 01:35:01;;;;;;;3.58;3.00;;;;;;;5.40;76.11;98823.16;5065155;28;20041;-71
2023/04/16 01:37:28;;;;;;;4.32;3.35;;;;;;;5.39;76.31;98824.09;5065717;28;20040;-71
2023/04/16 01:39:56;;;;;;;3.80;2.90;;;;;;;5.22;76.13;98810.81;5065109;28;20041;-70
2023/04/16 01:42:23;;;;;;;3.50;2.88;;;;;;;5.41;76.17;98839.78;5064930;28;20061;-71
2023/04/16 01:44:49;;;;;;;4.10;3.35;;;;;;;5.29;76.09;98820.13;5065161;28;20108;-71
2023/04/16 01:47:17;;;;;;;5.20;4.15;;;;;;;5.23;76.15;98802.00;5065551;28;20048;-71
2023/04/16 01:49:44;;;;;;;4.85;3.83;;;;;;;5.41;76.13;98842.41;5065431;28;20297;-70
2023/04/16 01:52:11;;;;;;;4.68;3.58;;;;;;;5.41;76.07;98845.91;5065309;28;20053;-71
2023/04/16 01:54:37;;;;;;;4.43;3.15;;;;;;;5.41;76.20;98851.16;5065534;28;20087;-70
2023/04/16 01:57:05;;;;;;;3.78;3.15;;;;;;;5.44;76.01;98847.53;5065235;28;20037;-70
2023/04/16 01:59:32;;;;;;;3.70;2.95;;;;;;;5.42;76.11;98841.50;5065516;28;20049;-70
2023/04/16 02:02:01;;;;;;;3.33;2.50;;;;;;;5.40;76.12;98846.81;5065477;28;20041;-71
2023/04/16 02:04:28;;;;;;;3.33;2.90;;;;;;;5.21;76.07;98816.13;5065775;28;20041;-71
2023/04/16 02:06:54;;;;;;;4.00;2.85;;;;;;;5.01;76.18;98783.66;5065299;28;20098;-70
2023/04/16 02:09:21;;;;;;;3.40;2.70;;;;;;;5.39;76.24;98849.50;5065914;28;20103;-70
2023/04/16 02:11:48;;;;;;;3.85;3.03;;;;;;;5.40;76.27;98852.06;5065110;28;20055;-70
2023/04/16 02:14:16;;;;;;;4.07;3.30;;;;;;;5.38;76.11;98851.28;5064751;28;20057;-70
2023/04/16 02:16:42;;;;;;;3.80;3.15;;;;;;;5.21;76.10;98822.22;5065031;28;20094;-71
2023/04/16 02:19:09;;;;;;;4.80;3.33;;;;;;;5.38;76.08;98853.06;5064696;28;20037;-71
2023/04/16 02:21:36;;;;;;;4.05;3.17;;;;;;;5.36;76.21;98849.63;5064973;28;20190;-71
2023/04/16 02:24:03;;;;;;;3.95;2.55;;;;;;;5.34;76.25;98852.34;5065250;28;20045;-72
2023/04/16 02:26:29;;;;;;;4.35;3.17;;;;;;;5.34;76.29;98857.59;5064591;28;20044;-72
2023/04/16 02:28:56;;;;;;;4.35;3.58;;;;;;;5.17;76.47;98830.31;5068067;28;20192;-72
2023/04/16 02:31:25;;;;;;;4.15;3.53;;;;;;;5.32;76.59;98856.78;5068209;28;20049;-73
2023/04/16 02:33:51;;;;;;;4.25;3.45;;;;;;;5.31;76.63;98859.50;5068171;28;20252;-72
2023/04/16 02:36:18;;;;;;;4.80;3.90;;;;;;;5.31;76.51;98865.59;5068628;28;20045;-71
2023/04/16 02:38:45;;;;;;;5.63;4.03;;;;;;;5.30;76.68;98863.03;5068390;28;20240;-72
2023/04/16 02:41:12;;;;;;;5.05;3.75;;;;;;;5.29;76.71;98858.69;5068585;28;20232;-71
2023/04/16 02:43:39;;;;;;;4.90;4.10;;;;;;;5.29;76.97;98861.31;5067983;28;20076;-71
2023/04/16 02:46:06;;;;;;;4.30;3.63;;;;;;;5.30;76.64;98858.63;5067875;28;20053;-71
2023/04/16 02:48:34;;;;;;;4.53;3.67;;;;;;;4.99;76.62;98811.75;5067757;28;20037;-71
2023/04/16 02:51:01;;;;;;;4.65;3.85;;;;;;;5.29;76.75;98854.28;5068336;28;20033;-71
2023/04/16 02:53:27;;;;;;;5.10;4.20;;;;;;;5.28;76.82;98860.47;5068275;28;20071;-71
2023/04/16 02:55:55;;;;;;;6.78;4.75;;;;;;;5.28;76.99;98865.72;5068025;28;20040;-71
2023/04/16 02:58:24;;;;;;;7.97;5.90;;;;;;;5.30;76.96;98865.66;5067942;28;20281;-71
2023/04/16 03:00:52;;;;;;;6.05;4.68;;;;;;;5.26;77.13;98862.31;5067870;28;20063;-71
2023/04/16 03:03:19;;;;;;;5.55;4.85;;;;;;;5.27;77.21;98865.78;5067621;28;20041;-71
2023/04/16 03:05:47;;;;;;;6.32;4.70;;;;;;;4.24;76.99;98698.44;5068011;28;20102;-71
2023/04/16 03:08:14;;;;;;;6.80;5.35;;;;;;;5.29;77.03;98864.81;5067695;28;20037;-70
2023/04/16 03:10:41;;;;;;;5.65;4.50;;;;;;;5.31;76.92;98873.47;5068012;28;20051;-71
2023/04/16 03:13:08;;;;;;;6.40;4.82;;;;;;;5.32;77.10;98876.97;5067969;28;20045;-71
2023/04/16 03:15:34;;;;;;;4.78;4.03;;;;;;;5.31;77.12;98881.38;5067533;28;20060;-71
2023/04/16 03:18:01;;;;;;;4.88;4.38;;;;;;;5.31;77.14;98872.63;5067622;28;20292;-72
2023/04/16 03:20:27;;;;;;;5.35;4.80;;;;;;;5.30;77.16;98884.06;5067786;28;20091;-72
2023/04/16 03:22:56;;;;;;;5.32;4.60;;;;;;;5.29;77.36;98875.31;5067518;28;20051;-71
2023/04/16 03:25:22;;;;;;;6.25;4.55;;;;;;;5.27;77.29;98879.78;5067442;28;20060;-71
2023/04/16 03:27:49;;;;;;;5.90;4.70;;;;;;;5.07;77.25;98856.94;5067446;28;20281;-71
2023/04/16 03:30:16;;;;;;;5.60;4.55;;;;;;;5.30;77.23;98886.69;5067340;28;20045;-72
2023/04/16 03:32:43;;;;;;;6.28;4.97;;;;;;;5.30;77.20;98889.31;5067106;28;20086;-71
2023/04/16 03:35:10;;;;;;;5.47;4.38;;;;;;;5.29;77.29;98888.47;5067282;28;20300;-71
2023/04/16 03:37:36;;;;;;;6.80;5.85;;;;;;;5.29;77.33;98890.22;5067536;28;20053;-71
2023/04/16 03:40:06;;;;;;;6.45;5.22;;;;;;;5.26;77.47;98890.34;5066523;28;20091;-72
2023/04/16 03:42:32;;;;;;;6.63;5.65;;;;;;;5.27;77.76;98892.06;5066932;28;20106;-71
2023/04/16 03:44:59;;;;;;;6.50;5.82;;;;;;;5.23;77.86;98888.72;5067372;28;20194;-71
2023/04/16 03:47:26;;;;;;;6.60;5.90;;;;;;;5.28;78.00;98897.25;5067092;28;20040;-72
2023/04/16 03:49:52;;;;;;;7.65;6.03;;;;;;;5.30;78.14;98905.06;5067222;28;20047;-71
2023/04/16 03:52:19;;;;;;;7.25;6.32;;;;;;;5.33;78.14;98899.69;5066799;28;20063;-71
2023/04/16 03:54:46;;;;;;;8.60;6.50;;;;;;;5.35;78.06;98903.13;5066652;28;20100;-71
2023/04/16 03:57:14;;;;;;;7.22;6.47;;;;;;;5.36;78.04;98899.56;5067136;28;20044;-71
2023/04/16 03:59:40;;;;;;;6.40;5.80;;;;;;;5.37;77.98;98912.66;5066490;28;20044;-71
2023/04/16 04:02:07;;;;;;;7.95;6.53;;;;;;;5.38;78.35;98913.50;5066480;28;20090;-71
2023/04/16 04:04:34;;;;;;;8.20;7.40;;;;;;;5.21;78.32;98885.28;5066769;28;20174;-71
2023/04/16 04:07:00;;;;;;;6.57;5.88;;;;;;;5.39;78.39;98926.56;5066672;28;20037;-71
2023/04/16 04:09:27;;;;;;;8.65;7.53;;;;;;;5.41;78.28;98927.38;5066838;28;20047;-71
2023/04/16 04:11:54;;;;;;;7.57;6.78;;;;;;;5.44;78.23;98931.63;5066880;28;20099;-72
2023/04/16 04:14:22;;;;;;;6.70;6.00;;;;;;;5.44;78.35;98927.25;5066818;28;20049;-71
2023/04/16 04:16:48;;;;;;;7.47;6.60;;;;;;;5.45;78.47;98941.25;5066499;28;20082;-71
2023/04/16 04:19:15;;;;;;;7.50;6.68;;;;;;;5.45;78.42;98942.09;5066180;28;20033;-71
2023/04/16 04:21:42;;;;;;;7.50;6.80;;;;;;;5.30;78.45;98910.34;5066677;28;20070;-72
2023/04/16 04:24:08;;;;;;;7.43;6.43;;;;;;;5.52;78.26;98944.47;5066636;28;20051;-71
2023/04/16 04:26:35;;;;;;;6.75;6.05;;;;;;;5.53;78.41;98940.91;5066073;28;20047;-72
2023/04/16 04:29:02;;;;;;;10.30;8.63;;;;;;;5.53;78.26;98947.03;5065973;28;20271;-71
2023/04/16 04:31:30;;;;;;;7.63;6.03;;;;;;;5.55;78.32;98953.09;5066526;28;20037;-71
2023/04/16 04:33:56;;;;;;;8.10;6.35;;;;;;;5.34;78.32;98915.41;5066490;28;20045;-72
2023/04/16 04:36:23;;;;;;;6.57;5.90;;;;;;;5.58;78.40;98957.34;5066148;28;20049;-71
2023/04/16 04:38:50;;;;;;;6.70;6.00;;;;;;;5.58;78.39;98957.34;5066113;28;20189;-71
2023/04/16 04:41:16;;;;;;;6.93;6.22;;;;;;;5.57;78.58;98959.13;5066321;28;20044;-71
2023/04/16 04:43:43;;;;;;;8.38;5.90;;;;;;;5.57;78.50;98961.75;5065632;28;20048;-71
2023/04/16 04:46:10;;;;;;;6.25;5.65;;;;;;;5.59;78.45;98965.19;5066266;28;20051;-71
2023/04/16 04:48:38;;;;;;;9.90;6.45;;;;;;;5.38;78.51;98935.38;5065897;28;20264;-71
2023/04/16 04:51:05;;;;;;;6.85;5.93;;;;;;;5.62;78.47;98972.09;5064774;28;20052;-72
2023/04/16 04:53:32;;;;;;;6.53;5.68;;;;;;;5.64;78.69;98976.38;5065885;28;20045;-72
2023/04/16 04:55:58;;;;;;;6.72;6.03;;;;;;;5.65;78.40;98985.09;5066139;28;20174;-71
2023/04/16 04:58:25;;;;;;;9.38;6.88;;;;;;;5.66;78.48;98989.44;5065777;28;20049;-71
2023/04/16 05:00:51;;;;;;;7.68;6.13;;;;;;;5.67;78.38;98991.16;5066054;28;20086;-71
2023/04/16 05:03:20;;;;;;;7.60;5.97;;;;;;;5.38;78.38;98945.03;5065972;28;20055;-71
2023/04/16 05:05:48;;;;;;;7.30;6.47;;;;;;;5.70;78.27;98988.41;5065745;28;20043;-71
2023/04/16 05:08:15;;;;;;;7.70;6.90;;;;;;;5.71;78.24;98992.75;5065948;28;20040;-71
2023/04/16 05:10:41;;;;;;;7.25;6.55;;;;;;;5.72;78.25;98999.72;5065259;28;20033;-71
2023/04/16 05:13:08;;;;;;;8.05;6.88;;;;;;;5.70;78.32;98999.78;5065299;28;20049;-71
2023/04/16 05:15:35;;;;;;;7.82;6.90;;;;;;;5.72;78.38;99007.59;5065545;28;20108;-71
2023/04/16 05:18:01;;;;;;;7.68;6.57;;;;;;;5.73;78.17;99006.69;5065205;28;20045;-71
2023/04/16 05:20:28;;;;;;;7.22;6.53;;;;;;;5.74;78.22;99005.75;5065808;28;20095;-71
2023/04/16 05:22:56;;;;;;;7.60;6.72;;;;;;;5.74;78.23;99017.13;5065791;28;20041;-71
2023/04/16 05:25:23;;;;;;;7.53;6.72;;;;;;;5.45;78.13;98964.91;5065783;28;20047;-71
2023/04/16 05:27:49;;;;;;;8.18;7.38;;;;;;;5.58;78.31;98987.13;5065217;28;20048;-71
2023/04/16 05:30:16;;;;;;;8.38;7.43;;;;;;;5.56;78.28;98991.59;5065382;28;20188;-71
2023/04/16 05:32:43;;;;;;;8.73;7.18;;;;;;;5.73;78.18;99011.94;5065425;28;20111;-70
2023/04/16 05:35:10;;;;;;;8.63;7.72;;;;;;;5.77;78.23;99018.78;5065662;28;20053;-71
2023/04/16 05:37:36;;;;;;;8.20;7.40;;;;;;;5.78;78.18;99015.25;5065426;28;20041;-71
2023/04/16 05:40:05;;;;;;;9.20;7.43;;;;;;;5.81;78.15;99019.53;5065106;28;20041;-71
2023/04/16 05:42:32;;;;;;;10.27;7.88;;;;;;;5.81;78.12;99028.25;5065009;28;20338;-71
2023/04/16 05:44:58;;;;;;;8.40;7.20;;;;;;;5.84;78.05;99028.13;5065311;28;20236;-71
2023/04/16 05:47:25;;;;;;;8.55;7.32;;;;;;;5.80;77.92;99015.19;5066023;28;20037;-71
2023/04/16 05:49:52;;;;;;;8.30;7.50;;;;;;;5.90;77.92;99033.16;5065093;28;20049;-71
2023/04/16 05:52:18;;;;;;;9.65;8.75;;;;;;;5.93;77.86;99032.16;5065245;28;20059;-71
2023/04/16 05:54:45;;;;;;;8.77;7.88;;;;;;;5.95;77.93;99025.91;5065172;28;20244;-71
2023/04/16 05:57:14;;;;;;;8.95;7.97;;;;;;;5.29;78.06;98913.88;5064221;28;20037;-71
2023/04/16 05:59:40;;;;;;;8.90;8.00;;;;;;;6.00;78.11;99023.94;5064656;28;20033;-71
2023/04/16 06:02:07;;;;;;;8.65;7.80;;;;;;;6.03;77.96;99025.59;5065779;28;20091;-71
2023/04/16 06:04:34;;;;;;;9.38;8.50;;;;;;;6.05;77.96;99026.38;5069262;28;20108;-70
2023/04/16 06:07:01;;;;;;;10.10;8.88;;;;;;;6.06;77.99;99026.31;5068664;28;20033;-71
2023/04/16 06:09:28;;;;;;;10.30;9.30;;;;;;;6.09;77.89;99026.19;5068783;28;20041;-71
2023/04/16 06:11:55;;;;;;;9.57;8.57;;;;;;;6.13;77.81;99032.19;5068669;28;20036;-71
2023/04/16 06:14:23;;;;;;;10.52;9.05;;;;;;;6.18;77.67;99042.50;5068522;28;20045;-71
2023/04/16 06:16:49;;;;;;;11.50;10.18;;;;;;;6.20;77.72;99033.63;5069049;28;20036;-71
2023/04/16 06:19:16;;;;;;;10.48;9.38;;;;;;;6.24;77.81;99044.88;5068816;28;20061;-71
2023/04/16 06:21:43;;;;;;;10.55;9.55;;;;;;;6.25;77.70;99041.34;5068687;28;20236;-70
2023/04/16 06:24:10;;;;;;;13.30;10.32;;;;;;;6.29;77.68;99042.91;5068883;28;20041;-71
2023/04/16 06:26:37;;;;;;;10.73;9.65;;;;;;;6.33;77.55;99042.72;5068313;28;20063;-71
2023/04/16 06:29:03;;;;;;;10.05;9.00;;;;;;;6.42;77.55;99046.72;5068496;28;20099;-71
2023/04/16 06:31:31;;;;;;;10.80;9.48;;;;;;;6.51;77.44;99045.47;5068471;28;20302;-71
2023/04/16 06:33:58;;;;;;;11.13;10.07;;;;;;;6.60;77.27;99045.94;5068378;28;20052;-71
2023/04/16 06:36:26;;;;;;;10.93;9.82;;;;;;;6.67;76.96;99044.75;5068411;28;20320;-71
2023/04/16 06:38:53;;;;;;;11.52;9.85;;;;;;;6.57;76.88;99009.22;5068242;28;20291;-71
2023/04/16 06:41:20;;;;;;;10.18;9.18;;;;;;;3.99;76.63;98554.31;5068490;28;20063;-71
2023/04/16 06:43:46;;;;;;;10.68;9.57;;;;;;;6.97;76.83;99039.91;5067827;28;20348;-71
2023/04/16 06:46:13;;;;;;;9.73;8.65;;;;;;;7.04;76.57;99040.47;5068207;28;20193;-71
2023/04/16 06:48:41;;;;;;;11.40;9.52;;;;;;;7.07;76.30;99041.19;5068033;28;20197;-71
2023/04/16 06:51:08;;;;;;;11.68;10.57;;;;;;;7.11;76.26;99041.91;5068004;28;20139;-71
2023/04/16 06:53:36;;;;;;;10.18;9.15;;;;;;;7.15;76.11;99048.75;5067715;28;20098;-71
2023/04/16 06:56:03;;;;;;;9.63;8.50;;;;;;;7.17;76.04;99053.94;5067491;28;20292;-71
2023/04/16 06:58:29;;;;;;;11.10;8.95;;;;;;;7.17;75.96;99046.91;5068003;28;20075;-71
2023/04/16 07:00:56;;;;;;;8.73;7.82;;;;;;;7.20;75.94;99048.53;5067995;28;20052;-71
2023/04/16 07:03:23;;;;;;;9.02;8.13;;;;;;;7.23;76.05;99054.53;5067929;28;20043;-72
2023/04/16 07:05:51;;;;;;;8.38;7.57;;;;;;;7.27;75.89;99056.09;5067742;28;20045;-71
2023/04/16 07:08:18;;;;;;;7.30;6.60;;;;;;;7.31;75.92;99060.28;5068138;28;20051;-71
2023/04/16 07:10:44;;;;;;;7.20;6.47;;;;;;;7.37;75.84;99065.31;5068040;28;20108;-72
2023/04/16 07:13:12;;;;;;;6.85;6.15;;;;;;;7.43;75.62;99065.94;5067918;28;20075;-71
2023/04/16 07:15:38;;;;;;;7.40;6.60;;;;;;;7.51;75.52;99069.09;5066137;28;20048;-72
2023/04/16 07:18:05;;;;;;;8.68;6.40;;;;;;;7.55;75.19;99060.09;5067651;28;20293;-71
2023/04/16 07:20:32;;;;;;;5.97;5.38;;;;;;;7.58;74.72;99070.50;5067577;28;20037;-71
2023/04/16 07:23:00;;;;;;;5.88;5.28;;;;;;;7.64;74.47;99078.13;5067455;28;20063;-71
2023/04/16 07:25:26;;;;;;;6.03;5.43;;;;;;;7.68;74.03;99079.69;5067092;28;20112;-71
2023/04/16 07:27:53;;;;;;;6.57;5.97;;;;;;;7.73;73.81;99079.47;5067706;28;20103;-72
2023/04/16 07:30:20;;;;;;;4.97;4.47;;;;;;;7.81;73.85;99085.22;5067252;28;20202;-71
2023/04/16 07:32:46;;;;;;;5.35;4.85;;;;;;;7.86;73.52;99084.09;5067339;28;20098;-72
2023/04/16 07:35:13;;;;;;;5.65;5.07;;;;;;;7.93;73.49;99085.50;5067535;28;20041;-71
2023/04/16 07:37:40;;;;;;;5.35;4.82;;;;;;;7.98;72.91;99085.28;5066999;28;20041;-72
2023/04/16 07:40:09;;;;;;;6.03;5.22;;;;;;;8.03;72.70;99084.13;5067076;28;20040;-71
2023/04/16 07:42:36;;;;;;;6.45;5.63;;;;;;;8.13;72.67;99091.59;5066635;28;20074;-71
2023/04/16 07:45:03;;;;;;;6.07;5.40;;;;;;;8.23;72.45;99092.84;5066745;28;20041;-71
2023/04/16 07:47:30;;;;;;;6.38;5.78;;;;;;;8.27;71.94;99092.59;5067070;28;20060;-72
2023/04/16 07:49:56;;;;;;;6.28;5.68;;;;;;;8.31;72.08;99094.16;5066254;28;20079;-72
2023/04/16 07:52:23;;;;;;;5.88;5.25;;;;;;;8.19;71.69;99071.00;5066835;28;20045;-71
2023/04/16 07:54:50;;;;;;;4.70;4.28;;;;;;;8.34;71.48;99090.50;5066833;28;20040;-71
2023/04/16 07:57:18;;;;;;;5.28;4.78;;;;;;;8.32;71.09;99087.94;5066570;28;20040;-71
2023/04/16 07:59:45;;;;;;;5.38;4.85;;;;;;;8.32;71.10;99093.22;5066946;28;20201;-72
2023/04/16 08:02:15;;;;;;;5.68;4.80;;;;;;;7.45;70.79;98941.03;5066351;28;20041;-71
2023/04/16 08:04:42;;;;;;;6.68;4.88;;;;;;;8.34;70.74;99151.25;5066672;28;20041;-71
2023/04/16 08:07:09;;;;;;;4.68;4.15;;;;;;;8.33;70.36;99094.09;5066573;28;20107;-71
2023/04/16 08:09:35;;;;;;;5.05;4.55;;;;;;;8.32;70.23;99098.50;5066673;28;20055;-71
2023/04/16 08:12:03;;;;;;;4.68;4.22;;;;;;;6.95;70.15;98861.75;5066192;28;20041;-71
2023/04/16 08:14:31;;;;;;;5.00;4.47;;;;;;;8.38;70.85;99096.50;5066509;28;20045;-71
2023/04/16 08:16:58;;;;;;;5.30;4.80;;;;;;;8.43;70.53;99095.34;5066139;28;20201;-71
2023/04/16 08:19:24;;;;;;;6.05;5.05;;;;;;;8.15;69.71;99047.47;5066115;28;20041;-71
2023/04/16 08:21:51;;;;;;;5.97;5.10;;;;;;;8.47;69.43;99098.66;5065911;28;20058;-71
2023/04/16 08:24:18;;;;;;;4.32;3.92;;;;;;;8.46;69.13;99100.47;5066186;28;20332;-71
2023/04/16 08:26:44;;;;;;;4.82;4.05;;;;;;;8.46;69.12;99108.38;5065637;28;20041;-71
2023/04/16 08:29:11;;;;;;;4.85;4.30;;;;;;;8.47;68.95;99106.59;5066001;28;20044;-71
2023/04/16 08:31:39;;;;;;;4.30;3.88;;;;;;;8.51;69.01;99102.88;5066114;28;20052;-71
2023/04/16 08:34:06;;;;;;;4.68;4.18;;;;;;;8.55;69.19;99114.97;5066337;28;20336;-72
2023/04/16 08:36:32;;;;;;;5.45;4.28;;;;;;;8.60;69.40;99113.81;5066094;28;20047;-72
2023/04/16 08:38:59;;;;;;;4.80;4.30;;;;;;;8.60;69.17;99113.81;5066371;28;20055;-71
2023/04/16 08:41:27;;;;;;;5.43;4.78;;;;;;;8.58;69.38;99109.53;5066098;28;20100;-71
2023/04/16 08:43:56;;;;;;;5.80;5.10;;;;;;;8.40;69.46;99086.72;5065580;28;20057;-71
2023/04/16 08:46:25;;;;;;;5.03;4.25;;;;;;;8.58;69.16;99109.53;5066276;28;20293;-71
2023/04/16 08:48:55;;;;;;;5.32;4.75;;;;;;;7.26;68.70;98882.19;5065950;28;20116;-71
2023/04/16 08:51:22;;;;;;;5.75;5.15;;;;;;;8.61;68.87;99112.88;5065954;28;20098;-72
2023/04/16 08:53:52;;;;;;;4.70;4.30;;;;;;;8.40;68.42;99084.91;5066109;28;20053;-71
2023/04/16 08:56:21;;;;;;;5.70;4.80;;;;;;;8.65;68.42;99125.00;5066135;28;20045;-72
2023/04/16 08:58:49;;;;;;;5.50;4.93;;;;;;;8.69;68.42;99120.41;5065799;28;20041;-72
2023/04/16 09:01:18;;;;;;;5.55;4.88;;;;;;;8.75;68.16;99120.09;5065690;28;20188;-72
2023/04/16 09:03:47;;;;;;;5.53;4.15;;;;;;;8.85;67.88;99128.41;5065842;28;20041;-72
2023/04/16 09:06:16;;;;;;;4.80;4.07;;;;;;;8.93;67.56;99124.44;5065445;28;20099;-72
2023/04/16 09:08:44;;;;;;;5.68;4.75;;;;;;;9.03;67.22;99142.47;5065729;28;20170;-71
2023/04/16 09:11:12;;;;;;;5.82;4.45;;;;;;;9.14;66.78;99121.59;5065564;28;20033;-72
2023/04/16 09:13:38;;;;;;;4.97;4.05;;;;;;;9.22;66.33;99122.09;5066301;28;20036;-72
2023/04/16 09:16:07;;;;;;;4.78;4.20;;;;;;;8.78;65.79;99064.47;5065337;28;20048;-71
2023/04/16 09:18:34;;;;;;;4.53;3.97;;;;;;;9.28;65.82;99127.91;5065867;28;20041;-72
2023/04/16 09:21:01;;;;;;;4.82;3.88;;;;;;;9.27;65.45;99131.47;5065579;28;20041;-71
2023/04/16 09:23:29;;;;;;;4.75;4.00;;;;;;;9.28;65.53;99122.59;5065537;28;20053;-71
2023/04/16 09:25:57;;;;;;;4.78;4.28;;;;;;;9.31;65.24;99133.03;5065276;28;20051;-71
2023/04/16 09:28:40;;;;;;;4.82;4.32;;;;;;;9.32;62.68;99129.44;5065709;28;20052;-72
2023/04/16 09:31:11;;;;;;;4.75;3.97;;;;;;;8.37;64.00;98983.88;5065746;28;20037;-71
2023/04/16 09:33:38;;;;;;;4.35;3.92;;;;;;;9.41;65.02;99140.50;5065211;28;20048;-71
2023/04/16 09:36:05;;;;;;;4.95;4.38;;;;;;;9.45;64.92;99144.69;5065181;28;20104;-71
2023/04/16 09:38:50;;;;;;;4.65;4.18;;;;;;;9.27;62.60;99110.31;5067922;28;20043;-72
2023/04/16 09:41:18;;;;;;;4.70;4.22;;;;;;;9.43;64.51;99143.91;5069468;28;20041;-72
2023/04/16 09:43:58;;;;;;;5.72;4.95;;;;;;;9.28;62.91;99122.59;5069062;28;20130;-71
2023/04/16 09:46:29;;;;;;;4.50;4.10;;;;;;;9.44;64.70;99145.63;5069384;28;20041;-71
2023/04/16 09:48:56;;;;;;;4.28;3.88;;;;;;;9.44;64.65;99143.84;5068998;28;20359;-72
2023/04/16 09:51:23;;;;;;;5.15;4.43;;;;;;;9.44;64.60;99158.84;5069385;28;20051;-72
2023/04/16 09:53:53;;;;;;;5.32;4.50;;;;;;;9.46;64.09;99154.34;5069296;28;20094;-71
2023/04/16 09:56:25;;;;;;;5.20;4.70;;;;;;;9.26;64.09;99120.97;5069515;28;20086;-71
2023/04/16 09:58:56;;;;;;;4.40;4.00;;;;;;;9.44;63.33;99153.56;5069675;28;20087;-72
2023/04/16 10:01:24;;;;;;;5.18;4.63;;;;;;;8.81;63.97;99052.88;5067969;28;20075;-72
2023/04/16 10:03:54;;;;;;;6.55;5.07;;;;;;;9.43;63.67;99155.34;5069069;28;20252;-71
2023/04/16 10:06:24;;;;;;;6.47;5.40;;;;;;;9.46;64.10;99157.84;5069267;28;20059;-71
2023/04/16 10:08:55;;;;;;;5.13;4.40;;;;;;;9.49;63.95;99155.03;5068682;28;20296;-71
2023/04/16 10:11:22;;;;;;;4.78;4.28;;;;;;;9.50;64.10;99150.59;5069049;28;20055;-72
2023/04/16 10:13:49;;;;;;;4.28;3.67;;;;;;;9.31;64.04;99127.75;5068783;28;20052;-71
2023/04/16 10:16:16;;;;;;;3.97;3.45;;;;;;;9.50;63.54;99158.53;5068961;28;20041;-71
2023/04/16 10:18:44;;;;;;;4.15;3.72;;;;;;;9.54;63.71;99152.13;5068441;28;20045;-71
2023/04/16 10:21:11;;;;;;;4.78;4.15;;;;;;;9.57;63.35;99141.38;5068467;28;20055;-71
2023/04/16 10:23:39;;;;;;;5.05;4.20;;;;;;;9.43;63.30;99112.19;5069043;28;20356;-71
2023/04/16 10:26:07;;;;;;;4.38;3.90;;;;;;;8.99;62.93;99028.09;5068465;28;20060;-71
2023/04/16 10:28:35;;;;;;;4.45;3.75;;;;;;;9.77;62.33;99153.53;5068609;28;20041;-71
2023/04/16 10:31:03;;;;;;;4.28;3.88;;;;;;;9.82;62.37;99144.38;5068132;28;20033;-71
2023/04/16 10:33:33;;;;;;;4.53;4.13;;;;;;;9.57;62.25;99099.91;5068227;28;20099;-72
2023/04/16 10:36:10;;;;;;;4.75;3.40;;;;;;;9.92;60.08;99145.59;5068522;28;20045;-71
2023/04/16 10:38:41;;;;;;;4.63;3.75;;;;;;;10.03;60.40;99152.06;5068835;28;20236;-71
2023/04/16 10:41:09;;;;;;;3.60;2.90;;;;;;;10.22;61.18;99142.16;5067985;28;20032;-72
2023/04/16 10:43:40;;;;;;;3.92;3.17;;;;;;;10.19;59.95;99121.13;5067618;28;20291;-71
2023/04/16 10:46:22;;;;;;;4.20;3.80;;;;;;;10.47;58.94;99147.75;5068591;28;20098;-71
2023/04/16 10:48:50;;;;;;;5.22;4.25;;;;;;;10.45;60.23;99106.38;5068105;28;20056;-71
2023/04/16 10:51:28;;;;;;;5.15;3.72;;;;;;;10.78;57.17;99144.19;5068063;28;20071;-71
2023/04/16 10:53:56;;;;;;;4.15;3.47;;;;;;;10.93;59.45;99142.41;5067970;28;20252;-72
2023/04/16 10:56:26;;;;;;;4.88;3.67;;;;;;;11.06;59.07;99142.53;5068234;28;20048;-71
2023/04/16 10:58:55;;;;;;;4.70;3.83;;;;;;;10.92;59.13;99108.88;5067838;28;20040;-71
2023/04/16 11:01:30;;;;;;;4.43;3.60;;;;;;;11.14;56.84;99142.91;5068017;28;20099;-72
2023/04/16 11:04:00;;;;;;;4.20;3.33;;;;;;;10.95;58.54;99111.34;5067998;28;20146;-72
2023/04/16 11:06:28;;;;;;;4.13;3.58;;;;;;;11.10;58.63;99136.09;5067606;28;20112;-71
2023/04/16 11:08:55;;;;;;;4.38;3.50;;;;;;;11.18;58.34;99150.59;5067539;28;20091;-72
2023/04/16 11:11:22;;;;;;;5.90;4.35;;;;;;;11.18;58.58;99147.94;5067631;28;20257;-72
2023/04/16 11:13:55;;;;;;;4.75;3.88;;;;;;;11.17;56.86;99146.22;5067796;28;20041;-72
2023/04/16 11:16:22;;;;;;;4.07;3.58;;;;;;;11.28;58.73;99147.38;5067892;28;20048;-71
2023/04/16 11:18:48;;;;;;;4.03;3.45;;;;;;;11.48;58.32;99147.84;5067972;28;20041;-72
2023/04/16 11:21:15;;;;;;;4.18;3.38;;;;;;;11.63;57.63;99147.84;5066842;28;20231;-71
2023/04/16 11:23:50;;;;;;;3.88;2.83;;;;;;;11.60;54.77;99106.44;5067292;28;20232;-72
2023/04/16 11:26:21;;;;;;;3.92;3.45;;;;;;;10.88;55.57;98938.53;5067637;28;20083;-72
2023/04/16 11:28:49;;;;;;;5.97;4.28;;;;;;;11.96;56.32;99074.00;5067511;28;20069;-71
2023/04/16 11:31:16;;;;;;;4.78;3.78;;;;;;;12.53;55.01;99126.97;5067262;28;20047;-72
2023/04/16 11:33:43;;;;;;;3.78;2.78;;;;;;;12.51;54.28;99097.84;5067418;28;20047;-71
2023/04/16 11:36:10;;;;;;;4.05;2.90;;;;;;;12.89;54.51;99134.28;5067338;28;20033;-72
2023/04/16 11:38:39;;;;;;;3.53;3.00;;;;;;;13.02;53.83;99134.28;5066982;28;20305;-72
2023/04/16 11:41:07;;;;;;;3.80;3.17;;;;;;;12.22;54.25;98995.31;5066916;28;20307;-71
2023/04/16 11:43:33;;;;;;;4.75;4.00;;;;;;;13.12;54.44;99127.38;5066869;28;20079;-70